BUCHANAN DAM (BUC)

Elevation: 450' · CHOWCHILLA R basin · Operator: US Army Corps of Engineers

Provisional data, subject to change.
Query executed Sunday at 4:37:52   clock

Select a sensor type for a plot of data.
Note: Reservoir Flows are daily averages.

Earlier

Date RES ELE    STORAGE    RES CHG    TOC STO    ABV TOC    OUTFLOW    INFLOW    PPT INC    TEMP MN    TEMP MX   
 FEET   AF   AF   AF   AF   CFS   CFS   INCHES   DEG F   DEG F  
01/15/2016 477.55 16617 70 107587 -90970 0 36 -- 6 15
01/16/2016 477.68 16699 82 107730 -91031 0 42 -- 7 16
01/17/2016 477.77 16757 58 107931 -91174 0 30 -- 5 17
01/18/2016 478.28 17084 327 107493 -90409 0 166 -- 8 16
01/19/2016 479.35 17782 698 107191 -89409 0 352 -- 8 14
01/20/2016 480.73 18704 922 107361 -88657 0 466 -- 7 16
01/21/2016 481.23 19044 340 107536 -88492 0 173 -- 7 19
01/22/2016 481.65 19332 288 107480 -88148 0 146 -- 9 16
01/23/2016 482.40 19852 520 107341 -87489 0 263 -- 7 15
01/24/2016 483.14 20372 520 107570 -87198 0 263 -- 3 15
01/25/2016 483.54 20656 284 107805 -87149 0 144 -- 3 13
01/26/2016 483.85 20878 222 107990 -87112 0 113 -- 4 17
01/27/2016 484.09 21050 172 108233 -87183 0 88 -- 5 15
01/28/2016 484.29 21194 144 108477 -87283 0 74 -- 2 15
01/29/2016 484.48 21331 137 108716 -87385 0 70 -- 8 16
01/30/2016 484.74 21520 189 108505 -86985 0 96 -- 9 13
01/31/2016 485.59 22143 623 108090 -85947 0 315 -- 4 10
02/01/2016 486.62 22910 767 108275 -85365 0 388 -- -0 13
02/02/2016 487.11 23280 370 108530 -85250 0 188 -- 1 10
02/03/2016 487.47 23554 274 108797 -85243 0 140 -- -0 13
02/04/2016 487.76 23775 221 109032 -85257 0 113 -- 2 13
02/05/2016 488.02 23974 199 109277 -85303 0 102 -- 2 16
02/06/2016 488.24 24144 170 109552 -85408 0 87 -- 3 16
02/07/2016 488.44 24298 154 109817 -85519 0 79 -- 4 18
02/08/2016 488.62 24438 140 110052 -85614 0 73 -- 5 22
02/09/2016 488.79 24570 132 110329 -85759 0 69 -- 6 22
02/10/2016 488.95 24694 124 110619 -85925 0 65 -- 6 21
02/11/2016 489.09 24804 110 110906 -86102 0 58 -- 7 25
02/12/2016 489.22 24905 101 111199 -86294 0 53 -- 6 20
02/13/2016 489.34 24999 94 111476 -- 0 49 -- 6 20
02/14/2016 -- -- -- -- -- -- -- -- -- --

Later | Latest

Warning! This data is preliminary and subject to revision.

Show BUC Map | Plot BUC Data | 1 Month BUC Data | Real-Time BUC Data | BUC Info